Flight Track Log - Related Links

Times and Time Zones

All times are in EDT time to prevent confusion due to time zone crossing. See the EJA122 flight status page for this flight to view local times or setup timezone preferences in your user account.

Time Position Orientation Groundspeed Altitude Reporting Facility
EDT Latitude Longitude Course Direction KTS MPH feet Rate Location/Type
Fri 06:02:15 PM 47.7644 -116.8669 250° West 197 227 3,400  Level Seattle Center
Fri 06:03:17 PM 47.7422 -116.9558 250° West 237 273 6,000 2,390 Climbing Seattle Center
Fri 06:04:18 PM 47.7144 -117.0586 248° West 269 310 8,300 2,164 Climbing Seattle Center
Fri 06:05:19 PM 47.6817 -117.1753 247° West 286 329 10,400 2,016 Climbing Seattle Center
Fri 06:06:20 PM 47.6389 -117.2764 238° Southwest 299 344 12,400 1,756 Climbing Seattle Center
Fri 06:07:22 PM 47.5539 -117.2908 187° South 307 353 14,000 1,317 Climbing Seattle Center
Fri 06:08:23 PM 47.4606 -117.3028 185° South 331 381 15,100 1,053 Climbing Seattle Center
Fri 06:11:00 PM 47.1777 -117.2667 180° South  Level FlightAware Approximate
Fri 06:11:27 PM 47.1678 -117.3400 180° South 361 415 18,300  Level Seattle Center
Fri 06:12:28 PM 47.0686 -117.3519 185° South 360 414 19,400 1,122 Climbing Seattle Center
Fri 06:13:30 PM 46.9689 -117.3650 185° South 360 414 20,600 1,122 Climbing Seattle Center
Fri 06:14:31 PM 46.8678 -117.3769 185° South 363 418 21,700 1,180 Climbing Seattle Center
Fri 06:15:32 PM 46.7456 -117.3936 185° South 367 422 23,000 1,230 Climbing Seattle Center
Fri 06:16:33 PM 46.6425 -117.4081 185° South 365 420 24,200 1,073 Climbing Seattle Center
Fri 06:17:35 PM 46.5439 -117.4211 185° South 367 422 25,200 1,024 Climbing Seattle Center
Fri 06:18:36 PM 46.4422 -117.4361 186° South 367 422 26,300 1,082 Climbing Seattle Center
Fri 06:19:37 PM 46.3417 -117.4492 185° South 365 420 27,400 1,073 Climbing Seattle Center
Fri 06:20:39 PM 46.2408 -117.4642 186° South 364 419 28,500 1,122 Climbing Seattle Center
Fri 06:21:40 PM 46.1422 -117.4772 185° South 360 414 29,700 1,131 Climbing Seattle Center
Fri 06:22:41 PM 46.0433 -117.4906 185° South 357 411 30,800 1,073 Climbing Seattle Center
Fri 06:23:43 PM 45.9433 -117.5036 185° South 360 414 31,900 1,171 Climbing Seattle Center
Fri 06:24:44 PM 45.8256 -117.5194 185° South 357 411 33,200 984 Climbing Seattle Center
Fri 06:25:45 PM 45.7239 -117.5322 185° South 365 420 33,900 634 Climbing Seattle Center
Fri 06:26:47 PM 45.6183 -117.5461 185° South 376 433 34,500 537 Climbing Seattle Center
Fri 06:27:48 PM 45.5122 -117.5611 186° South 383 441 35,000 639 Climbing Seattle Center
Fri 06:28:49 PM 45.4050 -117.5742 185° South 387 445 35,800 780 Climbing Seattle Center
Fri 06:29:51 PM 45.3011 -117.6019 191° South 380 437 36,600 732 Climbing Seattle Center
Fri 06:30:52 PM 45.1994 -117.6328 192° South 375 432 37,300 738 Climbing Seattle Center
Fri 06:31:53 PM 45.0831 -117.6678 192° South 374 430 38,100 585 Climbing Seattle Center
Fri 06:32:55 PM 44.9869 -117.6967 192° South 371 427 38,500 362 Climbing Seattle Center
Fri 06:34:22 PM 44.8431 -117.7397 192° South 370 426 39,000 201 Climbing Salt Lake Center
Fri 06:35:24 PM 44.7269 -117.7744 192° South 380 437 39,000  Level Salt Lake Center
Fri 06:36:26 PM 44.6256 -117.8050 192° South 387 445 39,000  Level Salt Lake Center
Fri 06:37:00 PM 44.5569 -117.8267 193° South 391 450 39,000  Level Seattle Center
Fri 06:38:01 PM 44.4531 -117.8561 191° South 397 457 39,000  Level Seattle Center
Fri 06:39:02 PM 44.3308 -117.8936 192° South 402 463 39,000  Level Seattle Center
Fri 06:40:04 PM 44.2231 -117.9250 192° South 410 472 39,000  Level Seattle Center
Fri 06:41:05 PM 44.1158 -117.9567 192° South 413 475 39,000  Level Seattle Center
Fri 06:41:35 PM 44.0433 -117.9772 192° South 413 475 39,000  Level Salt Lake Center
Fri 06:42:37 PM 43.9361 -118.0081 192° South 412 474 39,000  Level Salt Lake Center
Fri 06:43:39 PM 43.8272 -118.0381 191° South 415 478 39,000  Level Salt Lake Center
Fri 06:44:41 PM 43.7036 -118.0747 192° South 408 470 39,000  Level Salt Lake Center
Fri 06:45:43 PM 43.5972 -118.1056 192° South 408 470 39,000  Level Salt Lake Center
Fri 06:46:45 PM 43.4731 -118.1422 192° South 408 470 39,000  Level Salt Lake Center
Fri 06:47:47 PM 43.3661 -118.1717 191° South 409 471 39,000  Level Salt Lake Center
Fri 06:48:49 PM 43.2425 -118.2069 192° South 406 467 39,000  Level Salt Lake Center
Fri 06:49:51 PM 43.1350 -118.2381 192° South 407 468 39,000  Level Salt Lake Center
Fri 06:51:00 PM 42.9085 -118.3046 192° South  Level FlightAware Approximate
Fri 06:52:57 PM 42.8028 -118.3333 191° South 407 468 39,000  Level Salt Lake Center
Fri 06:55:00 PM 42.4316 -118.2872 175° South  Level Estimated
Fri 06:56:02 PM 42.4419 -118.4342 175° South 411 473 39,000  Level Salt Lake Center
Fri 06:57:04 PM 42.3364 -118.4631 191° South 405 466 39,000  Level Salt Lake Center
Fri 06:58:00 PM 41.5267 -118.6867 191° South  Level FlightAware Approximate
Fri 06:58:06 PM 42.2122 -118.4975 192° South 408 470 39,000  Level Salt Lake Center
Fri 06:59:09 PM 42.1067 -118.5275 192° South 406 467 39,000  Level Salt Lake Center
Fri 07:00:11 PM 41.9836 -118.5611 191° South 406 467 39,000  Level Salt Lake Center
Fri 07:01:13 PM 41.8775 -118.5903 192° South 407 468 39,000  Level Salt Lake Center
Fri 07:02:15 PM 41.7556 -118.6225 191° South 401 461 39,000  Level Salt Lake Center
Fri 07:03:17 PM 41.6500 -118.6500 191° South 402 463 39,000  Level Salt Lake Center
Fri 07:04:19 PM 41.5264 -118.6836 192° South 404 465 39,000  Level Salt Lake Center
Fri 07:05:21 PM 41.4217 -118.7131 192° South 403 464 39,000  Level Salt Lake Center
Fri 07:06:22 PM 41.2969 -118.7453 191° South 407 468 39,000  Level Salt Lake Center
Fri 07:07:24 PM 41.1908 -118.7742 192° South 408 470 39,000  Level Salt Lake Center
Fri 07:08:26 PM 41.0833 -118.8042 192° South 410 472 39,000  Level Salt Lake Center
Fri 07:09:28 PM 40.9581 -118.8353 191° South 410 472 39,000  Level Salt Lake Center
Fri 07:10:30 PM 40.8522 -118.8631 191° South 408 470 39,000  Level Salt Lake Center
Fri 07:11:32 PM 40.7278 -118.8958 191° South 407 468 39,000  Level Salt Lake Center
Fri 07:12:33 PM 40.6206 -118.9228 191° South 409 471 39,000  Level Salt Lake Center
Fri 07:13:38 PM 40.5047 -118.9011 172° South 415 478 39,000  Level Oakland Center
Fri 07:14:39 PM 40.3642 -118.8686 170° South 426 490 39,000  Level Oakland Center
Fri 07:15:39 PM 40.2706 -118.8469 170° South 424 488 39,000  Level Salt Lake Center
Fri 07:16:41 PM 40.1306 -118.8133 170° South 425 489 39,000  Level Salt Lake Center
Fri 07:17:43 PM 40.0144 -118.7861 170° South 423 487 39,000  Level Salt Lake Center
Fri 07:18:45 PM 39.8989 -118.7575 169° South 422 486 39,000  Level Oakland Center
Fri 07:19:46 PM 39.7819 -118.7306 170° South 425 489 39,000  Level Oakland Center
Fri 07:20:48 PM 39.6658 -118.7025 169° South 424 488 39,000  Level Oakland Center
Fri 07:21:49 PM 39.5500 -118.6736 169° South 422 486 39,000  Level Oakland Center
Fri 07:22:51 PM 39.4169 -118.6442 170° South 433 498 39,000  Level Oakland Center
Fri 07:23:52 PM 39.3019 -118.6164 169° South 427 491 39,000  Level Oakland Center
Fri 07:24:54 PM 39.1881 -118.5889 169° South 426 490 39,000  Level Oakland Center
Fri 07:25:55 PM 39.0731 -118.5622 170° South 420 483 39,000  Level Oakland Center
Fri 07:26:57 PM 38.9569 -118.5353 170° South 422 486 39,000  Level Oakland Center
Fri 07:27:58 PM 38.8186 -118.5039 170° South 420 483 39,000  Level Oakland Center
Fri 07:29:00 PM 38.7017 -118.4767 170° South 425 489 39,000  Level Oakland Center
Fri 07:30:02 PM 38.5875 -118.4517 170° South 418 481 39,000  Level Oakland Center
Fri 07:31:03 PM 38.4717 -118.4247 170° South 421 484 39,000  Level Oakland Center
Fri 07:32:05 PM 38.3567 -118.3978 170° South 420 483 39,000  Level Oakland Center
Fri 07:33:07 PM 38.2411 -118.3714 170° South 421 484 39,000  Level Oakland Center
Fri 07:34:08 PM 38.1258 -118.3461 170° South 420 483 39,000  Level Oakland Center
Fri 07:35:10 PM 38.0097 -118.3189 170° South 423 487 39,000  Level Oakland Center
Fri 07:36:12 PM 37.8725 -118.2867 169° South 421 484 39,000  Level Oakland Center
Fri 07:37:13 PM 37.7594 -118.2614 170° South 416 479 39,000  Level Oakland Center
Fri 07:38:15 PM 37.6436 -118.2350 170° South 421 484 39,000  Level Oakland Center
Fri 07:39:17 PM 37.5278 -118.2103 170° South 422 486 39,000  Level Oakland Center
Fri 07:40:18 PM 37.4122 -118.1833 170° South 422 486 39,000  Level Oakland Center
Fri 07:41:20 PM 37.2969 -118.1575 170° South 422 486 39,000  Level Oakland Center
Fri 07:42:21 PM 37.1814 -118.1308 170° South 422 486 39,000  Level Oakland Center
Fri 07:43:23 PM 37.0417 -118.0997 170° South 425 489 39,000  Level Oakland Center
Fri 07:44:25 PM 36.9247 -118.0844 174° South 424 488 39,000  Level Oakland Center
Fri 07:45:26 PM 36.8092 -118.1014 187° South 420 483 39,000  Level Oakland Center
Fri 07:46:28 PM 36.6919 -118.1153 185° South 421 484 39,000  Level Oakland Center
Fri 07:47:40 PM 36.5689 -118.1294 185° South 421 484 39,000  Level Los Angeles Center
Fri 07:48:42 PM 36.4278 -118.1464 186° South 424 488 39,000  Level Los Angeles Center
Fri 07:49:44 PM 36.3103 -118.1603 185° South 425 489 39,000  Level Los Angeles Center
Fri 07:50:46 PM 36.1931 -118.1750 186° South 424 488 39,000 -387 Level Los Angeles Center
Fri 07:51:48 PM 36.0747 -118.1881 185° South 427 491 38,200 -1,065 Descending Los Angeles Center
Fri 07:52:50 PM 35.9561 -118.2036 186° South 429 494 36,800 -1,344 Descending Los Angeles Center
Fri 07:53:53 PM 35.8122 -118.2206 185° South 434 499 35,400 -864 Descending Los Angeles Center
Fri 07:54:55 PM 35.6936 -118.2325 185° South 430 495 35,000 -176 Descending Los Angeles Center
Fri 07:56:09 PM 35.5492 -118.2500 186° South 437 503 35,000  Level Los Angeles Center
Fri 07:57:11 PM 35.4272 -118.2642 185° South 440 506 35,000  Level Los Angeles Center
Fri 07:58:13 PM 35.3058 -118.2789 186° South 443 510 35,000  Level Los Angeles Center
Fri 07:59:15 PM 35.1575 -118.2961 185° South 448 516 35,000  Level Los Angeles Center
Fri 08:00:18 PM 35.0347 -118.3108 186° South 447 514 35,000  Level Los Angeles Center
Fri 08:01:20 PM 34.9097 -118.3247 185° South 453 521 35,000  Level Los Angeles Center
Fri 08:02:22 PM 34.7864 -118.3381 185° South 449 517 35,000  Level Los Angeles Center
Fri 08:03:24 PM 34.6631 -118.3531 186° South 447 514 35,000 -919 Level Los Angeles Center
Fri 08:04:26 PM 34.5306 -118.3664 185° South 442 509 33,100 -2,177 Descending Los Angeles Center
Fri 08:05:28 PM 34.4036 -118.3822 186° South 453 521 30,500 -2,806 Descending Los Angeles Center
Fri 08:06:30 PM 34.2547 -118.3983 185° South 449 517 27,300 -2,806 Descending Los Angeles Center
Fri 08:07:32 PM 34.1314 -118.4119 185° South 447 514 24,700 -1,680 Descending Los Angeles Center
Fri 08:08:35 PM 34.0061 -118.4253 185° South 452 520 23,800 -1,632 Descending Los Angeles Center
Fri 08:09:37 PM 33.8711 -118.4544 190° South 456 525 21,300 -1,839 Descending Los Angeles Center
Fri 08:10:39 PM 33.7561 -118.4942 196° South 407 468 20,000 -677 Descending Los Angeles Center
Fri 08:11:41 PM 33.6506 -118.5294 196° South 401 461 19,900 -1,016 Descending Los Angeles Center
Fri 08:12:43 PM 33.5386 -118.5317 181° South 407 468 17,900 -1,935 Descending Los Angeles Center
Fri 08:13:45 PM 33.4422 -118.4767 155° Southeast 390 449 15,900 -1,694 Descending Los Angeles Center
Fri 08:14:47 PM 33.3686 -118.3664 129° Southeast 367 422 14,400 -1,403 Descending Los Angeles Center
Fri 08:15:49 PM 33.3514 -118.2483 100° East 364 419 13,000 -1,104 Descending Los Angeles Center
Fri 08:16:52 PM 33.3394 -118.1500 98° East 304 350 12,100 -960 Descending Los Angeles Center
Fri 08:17:54 PM 33.3272 -118.0575 99° East 286 329 11,000 -1,161 Descending Los Angeles Center
Fri 08:18:56 PM 33.3133 -117.9608 100° East 292 336 9,700 -1,258 Descending Los Angeles Center
Fri 08:19:58 PM 33.2994 -117.8456 98° East 293 337 8,400 -1,113 Descending Los Angeles Center
Fri 08:21:00 PM 33.2889 -117.7692 99° East 292 336 7,400 -1,161 Descending Los Angeles Center
Fri 08:22:02 PM 33.2731 -117.6550 99° East 291 335 6,000 -1,358 Descending Los Angeles Center
Fri 08:22:46 PM 33.2667 -117.5833 96° East 278 320 5,000 -571 Descending Southern California TRACON
Fri 08:23:47 PM 33.2500 -117.4833 101° East 271 312 5,000 50 Level Southern California TRACON
Fri 08:24:47 PM 33.2333 -117.4000 103° East 266 306 5,100 50 Climbing Southern California TRACON
Fri 08:25:48 PM 33.2333 -117.3167 90° East 269 310 5,100  Level Southern California TRACON
Fri 08:26:48 PM 33.2333 -117.2333 90° East 261 300 5,100 -250 Level Southern California TRACON
Fri 08:27:48 PM 33.2167 -117.1500 103° East 244 281 4,600 -300 Descending Southern California TRACON
Fri 08:28:48 PM 33.2167 -117.0833 90° East 203 234 4,500 -600 Descending Southern California TRACON
Fri 08:29:48 PM 33.1500 -117.0833 180° South 228 262 3,400 -1,100 Descending Southern California TRACON
Fri 08:30:48 PM 33.1500 -117.1500 270° West 204 235 2,300 -992 Descending Southern California TRACON
Fri 08:31:49 PM 33.1333 -117.2167 253° West 162 186 1,400 -800 Descending Southern California TRACON
Fri 08:32:48 PM 33.1333 -117.2500 270° West 123 142 700 -712 Descending Southern California TRACON

Login

Don't have an account? Register now (free) for customized features, flight alerts, and more!